sensor_id;sensor_type;location;lat;lon;timestamp;P1;durP1;ratioP1;P2;durP2;ratioP2
51654;SDS011;37732;53.106;7.030;2023-03-01T00:01:52;16.88;;;14.60;;
51654;SDS011;37732;53.106;7.030;2023-03-01T00:04:17;17.38;;;14.65;;
51654;SDS011;37732;53.106;7.030;2023-03-01T00:06:43;20.23;;;16.88;;
51654;SDS011;37732;53.106;7.030;2023-03-01T00:09:11;20.75;;;18.60;;
51654;SDS011;37732;53.106;7.030;2023-03-01T00:11:37;18.17;;;15.88;;
51654;SDS011;37732;53.106;7.030;2023-03-01T00:14:03;20.50;;;16.15;;
51654;SDS011;37732;53.106;7.030;2023-03-01T00:16:34;19.73;;;14.68;;
51654;SDS011;37732;53.106;7.030;2023-03-01T00:19:05;18.98;;;16.73;;
51654;SDS011;37732;53.106;7.030;2023-03-01T00:21:32;19.73;;;16.10;;
51654;SDS011;37732;53.106;7.030;2023-03-01T00:23:58;18.05;;;15.30;;
51654;SDS011;37732;53.106;7.030;2023-03-01T00:26:25;19.55;;;15.80;;
51654;SDS011;37732;53.106;7.030;2023-03-01T00:28:51;19.25;;;15.77;;
51654;SDS011;37732;53.106;7.030;2023-03-01T00:31:18;17.52;;;15.50;;
51654;SDS011;37732;53.106;7.030;2023-03-01T00:33:46;24.25;;;19.77;;
51654;SDS011;37732;53.106;7.030;2023-03-01T00:36:12;17.60;;;15.15;;
51654;SDS011;37732;53.106;7.030;2023-03-01T00:38:41;19.85;;;15.80;;
51654;SDS011;37732;53.106;7.030;2023-03-01T00:41:09;19.55;;;16.60;;
51654;SDS011;37732;53.106;7.030;2023-03-01T00:43:36;21.25;;;16.98;;
51654;SDS011;37732;53.106;7.030;2023-03-01T00:46:03;20.02;;;17.60;;
51654;SDS011;37732;53.106;7.030;2023-03-01T00:48:30;23.63;;;18.67;;
51654;SDS011;37732;53.106;7.030;2023-03-01T00:50:56;21.95;;;17.52;;
51654;SDS011;37732;53.106;7.030;2023-03-01T00:53:28;19.38;;;17.02;;
51654;SDS011;37732;53.106;7.030;2023-03-01T00:55:54;18.85;;;15.23;;
51654;SDS011;37732;53.106;7.030;2023-03-01T00:58:22;17.67;;;15.30;;
51654;SDS011;37732;53.106;7.030;2023-03-01T01:00:47;21.92;;;16.55;;
51654;SDS011;37732;53.106;7.030;2023-03-01T01:03:13;16.65;;;14.80;;
51654;SDS011;37732;53.106;7.030;2023-03-01T01:05:39;19.48;;;16.25;;
51654;SDS011;37732;53.106;7.030;2023-03-01T01:08:04;20.23;;;16.52;;
51654;SDS011;37732;53.106;7.030;2023-03-01T01:10:30;16.75;;;14.57;;
51654;SDS011;37732;53.106;7.030;2023-03-01T01:12:58;15.85;;;13.20;;
51654;SDS011;37732;53.106;7.030;2023-03-01T01:15:23;16.00;;;13.90;;
51654;SDS011;37732;53.106;7.030;2023-03-01T01:17:49;16.08;;;14.27;;
51654;SDS011;37732;53.106;7.030;2023-03-01T01:20:15;15.68;;;13.98;;
51654;SDS011;37732;53.106;7.030;2023-03-01T01:22:40;17.45;;;15.00;;
51654;SDS011;37732;53.106;7.030;2023-03-01T01:25:06;17.05;;;14.88;;
51654;SDS011;37732;53.106;7.030;2023-03-01T01:27:32;18.80;;;14.60;;
51654;SDS011;37732;53.106;7.030;2023-03-01T01:29:57;20.67;;;14.93;;
51654;SDS011;37732;53.106;7.030;2023-03-01T01:32:23;18.48;;;15.85;;
51654;SDS011;37732;53.106;7.030;2023-03-01T01:34:49;17.60;;;15.43;;
51654;SDS011;37732;53.106;7.030;2023-03-01T01:37:14;19.08;;;13.15;;
51654;SDS011;37732;53.106;7.030;2023-03-01T01:39:40;17.67;;;15.63;;
51654;SDS011;37732;53.106;7.030;2023-03-01T01:42:08;18.33;;;15.35;;
51654;SDS011;37732;53.106;7.030;2023-03-01T01:44:42;17.85;;;15.88;;
51654;SDS011;37732;53.106;7.030;2023-03-01T01:47:16;16.52;;;14.02;;
51654;SDS011;37732;53.106;7.030;2023-03-01T01:49:49;18.85;;;16.13;;
51654;SDS011;37732;53.106;7.030;2023-03-01T01:54:51;17.10;;;14.20;;
51654;SDS011;37732;53.106;7.030;2023-03-01T01:57:43;17.15;;;14.90;;
51654;SDS011;37732;53.106;7.030;2023-03-01T02:08:05;19.77;;;16.33;;
51654;SDS011;37732;53.106;7.030;2023-03-01T02:10:32;19.92;;;16.08;;
51654;SDS011;37732;53.106;7.030;2023-03-01T02:12:59;30.48;;;26.70;;
51654;SDS011;37732;53.106;7.030;2023-03-01T02:15:26;21.42;;;17.83;;
51654;SDS011;37732;53.106;7.030;2023-03-01T02:17:56;18.73;;;16.30;;
51654;SDS011;37732;53.106;7.030;2023-03-01T02:22:57;20.90;;;17.42;;
51654;SDS011;37732;53.106;7.030;2023-03-01T02:30:43;18.23;;;16.33;;
51654;SDS011;37732;53.106;7.030;2023-03-01T02:33:30;17.42;;;14.23;;
51654;SDS011;37732;53.106;7.030;2023-03-01T02:36:01;18.27;;;14.68;;
51654;SDS011;37732;53.106;7.030;2023-03-01T02:38:30;18.95;;;14.98;;
51654;SDS011;37732;53.106;7.030;2023-03-01T02:40:57;18.23;;;14.65;;
51654;SDS011;37732;53.106;7.030;2023-03-01T02:43:23;19.75;;;16.42;;
51654;SDS011;37732;53.106;7.030;2023-03-01T02:45:56;18.08;;;14.35;;
51654;SDS011;37732;53.106;7.030;2023-03-01T02:48:23;16.92;;;13.57;;
51654;SDS011;37732;53.106;7.030;2023-03-01T02:51:05;18.85;;;16.23;;
51654;SDS011;37732;53.106;7.030;2023-03-01T02:54:15;17.90;;;11.13;;
51654;SDS011;37732;53.106;7.030;2023-03-01T02:56:50;17.58;;;13.02;;
51654;SDS011;37732;53.106;7.030;2023-03-01T02:59:18;20.17;;;16.05;;
51654;SDS011;37732;53.106;7.030;2023-03-01T03:01:46;19.95;;;16.23;;
51654;SDS011;37732;53.106;7.030;2023-03-01T03:04:13;20.25;;;16.38;;
51654;SDS011;37732;53.106;7.030;2023-03-01T03:06:44;24.27;;;21.70;;
51654;SDS011;37732;53.106;7.030;2023-03-01T03:09:11;21.30;;;19.00;;
51654;SDS011;37732;53.106;7.030;2023-03-01T03:11:38;19.50;;;16.63;;
51654;SDS011;37732;53.106;7.030;2023-03-01T03:14:05;22.13;;;16.83;;
51654;SDS011;37732;53.106;7.030;2023-03-01T03:16:41;19.05;;;16.40;;
51654;SDS011;37732;53.106;7.030;2023-03-01T03:19:08;19.95;;;16.38;;
51654;SDS011;37732;53.106;7.030;2023-03-01T03:21:34;19.33;;;16.33;;
51654;SDS011;37732;53.106;7.030;2023-03-01T03:24:00;22.05;;;18.23;;
51654;SDS011;37732;53.106;7.030;2023-03-01T03:26:26;20.98;;;17.25;;
51654;SDS011;37732;53.106;7.030;2023-03-01T03:28:52;22.63;;;19.13;;
51654;SDS011;37732;53.106;7.030;2023-03-01T03:31:18;23.60;;;20.77;;
51654;SDS011;37732;53.106;7.030;2023-03-01T03:33:44;21.15;;;17.15;;
51654;SDS011;37732;53.106;7.030;2023-03-01T03:36:09;25.00;;;20.08;;
51654;SDS011;37732;53.106;7.030;2023-03-01T03:38:42;19.63;;;16.75;;
51654;SDS011;37732;53.106;7.030;2023-03-01T03:41:10;24.50;;;14.65;;
51654;SDS011;37732;53.106;7.030;2023-03-01T03:43:36;20.10;;;16.08;;
51654;SDS011;37732;53.106;7.030;2023-03-01T03:46:05;23.13;;;20.10;;
51654;SDS011;37732;53.106;7.030;2023-03-01T03:48:34;22.27;;;19.83;;
51654;SDS011;37732;53.106;7.030;2023-03-01T03:51:01;22.27;;;18.48;;
51654;SDS011;37732;53.106;7.030;2023-03-01T03:53:30;21.00;;;18.35;;
51654;SDS011;37732;53.106;7.030;2023-03-01T03:55:56;28.45;;;21.08;;
51654;SDS011;37732;53.106;7.030;2023-03-01T03:58:23;22.17;;;19.60;;
51654;SDS011;37732;53.106;7.030;2023-03-01T04:00:54;20.20;;;13.85;;
51654;SDS011;37732;53.106;7.030;2023-03-01T04:03:22;21.88;;;18.40;;
51654;SDS011;37732;53.106;7.030;2023-03-01T04:05:50;22.88;;;17.65;;
51654;SDS011;37732;53.106;7.030;2023-03-01T04:08:17;21.50;;;17.30;;
51654;SDS011;37732;53.106;7.030;2023-03-01T04:10:48;20.63;;;16.92;;
51654;SDS011;37732;53.106;7.030;2023-03-01T04:13:17;20.25;;;16.15;;
51654;SDS011;37732;53.106;7.030;2023-03-01T04:15:50;21.88;;;17.80;;
51654;SDS011;37732;53.106;7.030;2023-03-01T04:18:16;20.05;;;16.75;;
51654;SDS011;37732;53.106;7.030;2023-03-01T04:20:44;18.70;;;16.63;;
51654;SDS011;37732;53.106;7.030;2023-03-01T04:23:11;20.55;;;16.55;;
51654;SDS011;37732;53.106;7.030;2023-03-01T04:25:53;17.48;;;11.90;;
51654;SDS011;37732;53.106;7.030;2023-03-01T04:28:25;21.38;;;17.30;;
51654;SDS011;37732;53.106;7.030;2023-03-01T04:30:58;19.23;;;16.02;;
51654;SDS011;37732;53.106;7.030;2023-03-01T04:33:26;19.15;;;15.85;;
51654;SDS011;37732;53.106;7.030;2023-03-01T04:35:52;18.23;;;15.77;;
51654;SDS011;37732;53.106;7.030;2023-03-01T04:38:18;20.63;;;16.30;;
51654;SDS011;37732;53.106;7.030;2023-03-01T04:40:44;19.30;;;16.00;;
51654;SDS011;37732;53.106;7.030;2023-03-01T04:43:11;23.05;;;20.40;;
51654;SDS011;37732;53.106;7.030;2023-03-01T04:45:39;20.13;;;14.85;;
51654;SDS011;37732;53.106;7.030;2023-03-01T04:48:05;20.35;;;17.20;;
51654;SDS011;37732;53.106;7.030;2023-03-01T04:50:31;20.58;;;17.23;;
51654;SDS011;37732;53.106;7.030;2023-03-01T04:52:56;22.95;;;18.63;;
51654;SDS011;37732;53.106;7.030;2023-03-01T04:55:24;18.70;;;16.70;;
51654;SDS011;37732;53.106;7.030;2023-03-01T04:57:51;21.25;;;16.65;;
51654;SDS011;37732;53.106;7.030;2023-03-01T05:00:16;19.08;;;16.38;;
51654;SDS011;37732;53.106;7.030;2023-03-01T05:02:56;24.27;;;18.67;;
51654;SDS011;37732;53.106;7.030;2023-03-01T05:05:27;20.45;;;17.25;;
51654;SDS011;37732;53.106;7.030;2023-03-01T05:07:58;20.05;;;17.13;;
51654;SDS011;37732;53.106;7.030;2023-03-01T05:10:26;19.38;;;14.02;;
51654;SDS011;37732;53.106;7.030;2023-03-01T05:12:54;18.60;;;16.60;;
51654;SDS011;37732;53.106;7.030;2023-03-01T05:15:22;16.15;;;11.70;;
51654;SDS011;37732;53.106;7.030;2023-03-01T05:17:50;17.90;;;11.93;;
51654;SDS011;37732;53.106;7.030;2023-03-01T05:20:17;16.23;;;13.52;;
51654;SDS011;37732;53.106;7.030;2023-03-01T05:22:48;22.98;;;16.83;;
51654;SDS011;37732;53.106;7.030;2023-03-01T05:25:14;23.67;;;18.77;;
51654;SDS011;37732;53.106;7.030;2023-03-01T05:27:40;27.67;;;20.15;;
51654;SDS011;37732;53.106;7.030;2023-03-01T05:30:06;21.48;;;12.20;;
51654;SDS011;37732;53.106;7.030;2023-03-01T05:32:49;22.85;;;19.30;;
51654;SDS011;37732;53.106;7.030;2023-03-01T05:35:20;22.65;;;18.83;;
51654;SDS011;37732;53.106;7.030;2023-03-01T05:37:46;24.98;;;18.98;;
51654;SDS011;37732;53.106;7.030;2023-03-01T05:40:15;25.65;;;20.33;;
51654;SDS011;37732;53.106;7.030;2023-03-01T05:42:43;21.48;;;18.05;;
51654;SDS011;37732;53.106;7.030;2023-03-01T05:45:10;22.73;;;17.25;;
51654;SDS011;37732;53.106;7.030;2023-03-01T05:47:37;21.20;;;17.48;;
51654;SDS011;37732;53.106;7.030;2023-03-01T05:50:20;19.75;;;16.35;;
51654;SDS011;37732;53.106;7.030;2023-03-01T05:52:48;23.92;;;19.13;;
51654;SDS011;37732;53.106;7.030;2023-03-01T05:55:22;19.40;;;15.35;;
51654;SDS011;37732;53.106;7.030;2023-03-01T05:57:47;20.30;;;13.18;;
51654;SDS011;37732;53.106;7.030;2023-03-01T06:00:15;22.17;;;17.98;;
51654;SDS011;37732;53.106;7.030;2023-03-01T06:02:42;18.58;;;11.95;;
51654;SDS011;37732;53.106;7.030;2023-03-01T06:05:09;16.95;;;11.23;;
51654;SDS011;37732;53.106;7.030;2023-03-01T06:07:36;18.65;;;16.65;;
51654;SDS011;37732;53.106;7.030;2023-03-01T06:10:03;17.08;;;14.02;;
51654;SDS011;37732;53.106;7.030;2023-03-01T06:12:31;17.55;;;14.70;;
51654;SDS011;37732;53.106;7.030;2023-03-01T06:14:57;17.48;;;11.65;;
51654;SDS011;37732;53.106;7.030;2023-03-01T06:17:23;19.38;;;15.27;;
51654;SDS011;37732;53.106;7.030;2023-03-01T06:19:49;23.73;;;15.80;;
51654;SDS011;37732;53.106;7.030;2023-03-01T06:22:15;22.45;;;19.67;;
51654;SDS011;37732;53.106;7.030;2023-03-01T06:24:40;22.48;;;18.75;;
51654;SDS011;37732;53.106;7.030;2023-03-01T06:27:06;25.70;;;15.32;;
51654;SDS011;37732;53.106;7.030;2023-03-01T06:29:32;38.45;;;24.05;;
51654;SDS011;37732;53.106;7.030;2023-03-01T06:31:57;27.83;;;20.63;;
51654;SDS011;37732;53.106;7.030;2023-03-01T06:34:23;24.17;;;14.27;;
51654;SDS011;37732;53.106;7.030;2023-03-01T06:36:49;54.08;;;23.27;;
51654;SDS011;37732;53.106;7.030;2023-03-01T06:39:14;56.83;;;23.42;;
51654;SDS011;37732;53.106;7.030;2023-03-01T06:41:41;49.67;;;23.17;;
51654;SDS011;37732;53.106;7.030;2023-03-01T06:44:07;24.20;;;20.63;;
51654;SDS011;37732;53.106;7.030;2023-03-01T06:46:32;29.90;;;23.35;;
51654;SDS011;37732;53.106;7.030;2023-03-01T06:48:58;27.20;;;14.60;;
51654;SDS011;37732;53.106;7.030;2023-03-01T06:51:24;200.93;;;36.72;;
51654;SDS011;37732;53.106;7.030;2023-03-01T06:53:50;168.02;;;27.67;;
51654;SDS011;37732;53.106;7.030;2023-03-01T06:56:16;81.10;;;24.73;;
51654;SDS011;37732;53.106;7.030;2023-03-01T06:58:41;229.35;;;28.33;;
51654;SDS011;37732;53.106;7.030;2023-03-01T07:01:07;191.43;;;34.78;;
51654;SDS011;37732;53.106;7.030;2023-03-01T07:03:34;78.13;;;26.90;;
51654;SDS011;37732;53.106;7.030;2023-03-01T07:05:59;57.00;;;15.98;;
51654;SDS011;37732;53.106;7.030;2023-03-01T07:08:25;64.10;;;26.38;;
51654;SDS011;37732;53.106;7.030;2023-03-01T07:10:55;354.27;;;51.28;;
51654;SDS011;37732;53.106;7.030;2023-03-01T07:13:21;191.63;;;24.85;;
51654;SDS011;37732;53.106;7.030;2023-03-01T07:15:47;409.77;;;59.08;;
51654;SDS011;37732;53.106;7.030;2023-03-01T07:18:12;557.58;;;80.10;;
51654;SDS011;37732;53.106;7.030;2023-03-01T07:20:38;196.02;;;42.90;;
51654;SDS011;37732;53.106;7.030;2023-03-01T07:23:04;164.50;;;34.55;;
51654;SDS011;37732;53.106;7.030;2023-03-01T07:25:31;39.50;;;20.83;;
51654;SDS011;37732;53.106;7.030;2023-03-01T07:27:57;241.45;;;41.80;;
51654;SDS011;37732;53.106;7.030;2023-03-01T07:30:23;93.15;;;30.48;;
51654;SDS011;37732;53.106;7.030;2023-03-01T07:32:51;410.77;;;50.88;;
51654;SDS011;37732;53.106;7.030;2023-03-01T07:35:17;190.15;;;42.47;;
51654;SDS011;37732;53.106;7.030;2023-03-01T07:37:42;65.82;;;25.58;;
51654;SDS011;37732;53.106;7.030;2023-03-01T07:40:08;67.50;;;26.05;;
51654;SDS011;37732;53.106;7.030;2023-03-01T07:42:35;193.70;;;37.17;;
51654;SDS011;37732;53.106;7.030;2023-03-01T07:45:01;160.57;;;24.95;;
51654;SDS011;37732;53.106;7.030;2023-03-01T07:47:26;206.82;;;31.95;;
51654;SDS011;37732;53.106;7.030;2023-03-01T07:49:52;118.60;;;28.25;;
51654;SDS011;37732;53.106;7.030;2023-03-01T07:52:17;157.85;;;33.28;;
51654;SDS011;37732;53.106;7.030;2023-03-01T07:54:43;49.53;;;22.85;;
51654;SDS011;37732;53.106;7.030;2023-03-01T07:57:09;175.32;;;35.30;;
51654;SDS011;37732;53.106;7.030;2023-03-01T07:59:35;39.30;;;18.35;;
51654;SDS011;37732;53.106;7.030;2023-03-01T08:02:01;48.00;;;23.42;;
51654;SDS011;37732;53.106;7.030;2023-03-01T08:04:26;49.88;;;16.77;;
51654;SDS011;37732;53.106;7.030;2023-03-01T08:06:52;48.22;;;21.00;;
51654;SDS011;37732;53.106;7.030;2023-03-01T08:09:19;40.60;;;14.75;;
51654;SDS011;37732;53.106;7.030;2023-03-01T08:11:46;49.35;;;21.17;;
51654;SDS011;37732;53.106;7.030;2023-03-01T08:14:11;77.00;;;23.33;;
51654;SDS011;37732;53.106;7.030;2023-03-01T08:16:37;34.95;;;19.70;;
51654;SDS011;37732;53.106;7.030;2023-03-01T08:19:07;68.25;;;22.52;;
51654;SDS011;37732;53.106;7.030;2023-03-01T08:21:34;91.70;;;22.27;;
51654;SDS011;37732;53.106;7.030;2023-03-01T08:24:00;81.22;;;24.73;;
51654;SDS011;37732;53.106;7.030;2023-03-01T08:26:27;33.35;;;19.27;;
51654;SDS011;37732;53.106;7.030;2023-03-01T08:28:52;38.75;;;18.52;;
51654;SDS011;37732;53.106;7.030;2023-03-01T08:31:25;134.48;;;27.75;;
51654;SDS011;37732;53.106;7.030;2023-03-01T08:33:54;23.48;;;19.98;;
51654;SDS011;37732;53.106;7.030;2023-03-01T08:36:22;32.78;;;20.63;;
51654;SDS011;37732;53.106;7.030;2023-03-01T08:38:49;37.33;;;21.90;;
51654;SDS011;37732;53.106;7.030;2023-03-01T08:41:15;60.03;;;23.95;;
51654;SDS011;37732;53.106;7.030;2023-03-01T08:43:41;53.42;;;23.55;;
51654;SDS011;37732;53.106;7.030;2023-03-01T08:46:06;42.80;;;20.77;;
51654;SDS011;37732;53.106;7.030;2023-03-01T08:48:32;31.80;;;16.13;;
51654;SDS011;37732;53.106;7.030;2023-03-01T08:51:06;38.53;;;20.58;;
51654;SDS011;37732;53.106;7.030;2023-03-01T08:53:37;43.05;;;18.02;;
51654;SDS011;37732;53.106;7.030;2023-03-01T08:56:03;90.93;;;26.00;;
51654;SDS011;37732;53.106;7.030;2023-03-01T08:58:29;123.45;;;32.35;;
51654;SDS011;37732;53.106;7.030;2023-03-01T09:00:55;36.38;;;21.42;;
51654;SDS011;37732;53.106;7.030;2023-03-01T09:03:21;27.27;;;18.70;;
51654;SDS011;37732;53.106;7.030;2023-03-01T09:05:48;23.65;;;20.35;;
51654;SDS011;37732;53.106;7.030;2023-03-01T09:08:15;33.40;;;19.90;;
51654;SDS011;37732;53.106;7.030;2023-03-01T09:10:41;40.10;;;20.35;;
51654;SDS011;37732;53.106;7.030;2023-03-01T09:13:07;59.05;;;24.55;;
51654;SDS011;37732;53.106;7.030;2023-03-01T09:15:33;45.90;;;21.65;;
51654;SDS011;37732;53.106;7.030;2023-03-01T09:17:59;30.80;;;23.30;;
51654;SDS011;37732;53.106;7.030;2023-03-01T09:20:25;54.90;;;22.75;;
51654;SDS011;37732;53.106;7.030;2023-03-01T09:22:50;40.75;;;23.60;;
51654;SDS011;37732;53.106;7.030;2023-03-01T09:25:16;72.55;;;28.80;;
51654;SDS011;37732;53.106;7.030;2023-03-01T09:27:42;33.50;;;22.65;;
51654;SDS011;37732;53.106;7.030;2023-03-01T09:30:08;25.02;;;21.73;;
51654;SDS011;37732;53.106;7.030;2023-03-01T09:32:34;31.50;;;27.98;;
51654;SDS011;37732;53.106;7.030;2023-03-01T09:34:59;30.92;;;27.05;;
51654;SDS011;37732;53.106;7.030;2023-03-01T09:37:32;29.45;;;26.25;;
51654;SDS011;37732;53.106;7.030;2023-03-01T09:39:58;36.70;;;25.88;;
51654;SDS011;37732;53.106;7.030;2023-03-01T09:42:24;30.67;;;23.08;;
51654;SDS011;37732;53.106;7.030;2023-03-01T09:44:54;29.52;;;25.33;;
51654;SDS011;37732;53.106;7.030;2023-03-01T09:47:23;37.97;;;27.42;;
51654;SDS011;37732;53.106;7.030;2023-03-01T09:50:13;32.67;;;26.92;;
51654;SDS011;37732;53.106;7.030;2023-03-01T09:52:49;42.03;;;30.05;;
51654;SDS011;37732;53.106;7.030;2023-03-01T09:55:26;38.85;;;31.67;;
51654;SDS011;37732;53.106;7.030;2023-03-01T09:57:59;37.47;;;32.28;;
51654;SDS011;37732;53.106;7.030;2023-03-01T10:00:42;37.90;;;32.42;;
51654;SDS011;37732;53.106;7.030;2023-03-01T10:03:12;40.92;;;33.72;;
51654;SDS011;37732;53.106;7.030;2023-03-01T10:08:42;37.40;;;32.75;;
51654;SDS011;37732;53.106;7.030;2023-03-01T10:11:38;41.83;;;34.05;;
51654;SDS011;37732;53.106;7.030;2023-03-01T10:16:54;38.88;;;34.30;;
51654;SDS011;37732;53.106;7.030;2023-03-01T10:19:29;40.13;;;34.05;;
51654;SDS011;37732;53.106;7.030;2023-03-01T10:21:59;41.60;;;35.13;;
51654;SDS011;37732;53.106;7.030;2023-03-01T10:24:46;38.88;;;33.67;;
51654;SDS011;37732;53.106;7.030;2023-03-01T10:32:46;39.25;;;29.88;;
51654;SDS011;37732;53.106;7.030;2023-03-01T10:35:16;35.13;;;29.48;;
51654;SDS011;37732;53.106;7.030;2023-03-01T10:40:49;36.42;;;30.30;;
51654;SDS011;37732;53.106;7.030;2023-03-01T10:43:20;32.07;;;27.13;;
51654;SDS011;37732;53.106;7.030;2023-03-01T10:45:47;33.80;;;26.48;;
51654;SDS011;37732;53.106;7.030;2023-03-01T10:48:22;28.10;;;24.10;;
51654;SDS011;37732;53.106;7.030;2023-03-01T10:58:28;30.00;;;25.88;;
51654;SDS011;37732;53.106;7.030;2023-03-01T11:00:59;28.67;;;23.88;;
51654;SDS011;37732;53.106;7.030;2023-03-01T11:06:39;27.35;;;24.33;;
51654;SDS011;37732;53.106;7.030;2023-03-01T11:09:17;29.40;;;24.90;;
51654;SDS011;37732;53.106;7.030;2023-03-01T11:11:57;28.40;;;25.30;;
51654;SDS011;37732;53.106;7.030;2023-03-01T11:14:25;30.77;;;24.90;;
51654;SDS011;37732;53.106;7.030;2023-03-01T11:20:01;30.02;;;26.38;;
51654;SDS011;37732;53.106;7.030;2023-03-01T11:22:28;25.90;;;22.80;;
51654;SDS011;37732;53.106;7.030;2023-03-01T11:24:56;27.85;;;24.13;;
51654;SDS011;37732;53.106;7.030;2023-03-01T11:27:27;27.75;;;23.13;;
51654;SDS011;37732;53.106;7.030;2023-03-01T11:32:35;29.75;;;22.38;;
51654;SDS011;37732;53.106;7.030;2023-03-01T11:35:10;26.23;;;23.30;;
51654;SDS011;37732;53.106;7.030;2023-03-01T11:37:49;25.98;;;23.17;;
51654;SDS011;37732;53.106;7.030;2023-03-01T11:45:50;29.17;;;23.45;;
51654;SDS011;37732;53.106;7.030;2023-03-01T11:51:05;27.30;;;21.08;;
51654;SDS011;37732;53.106;7.030;2023-03-01T12:21:55;20.60;;;17.55;;
51654;SDS011;37732;53.106;7.030;2023-03-01T12:29:53;19.52;;;17.27;;
51654;SDS011;37732;53.106;7.030;2023-03-01T12:49:10;20.67;;;17.48;;
51654;SDS011;37732;53.106;7.030;2023-03-01T12:51:41;19.58;;;16.70;;
51654;SDS011;37732;53.106;7.030;2023-03-01T12:54:16;19.45;;;17.40;;
51654;SDS011;37732;53.106;7.030;2023-03-01T12:56:51;19.08;;;17.05;;
51654;SDS011;37732;53.106;7.030;2023-03-01T12:59:35;18.95;;;15.85;;
51654;SDS011;37732;53.106;7.030;2023-03-01T13:12:53;19.98;;;16.75;;
51654;SDS011;37732;53.106;7.030;2023-03-01T13:15:28;20.15;;;16.83;;
51654;SDS011;37732;53.106;7.030;2023-03-01T13:20:34;20.23;;;16.65;;
51654;SDS011;37732;53.106;7.030;2023-03-01T13:46:42;18.52;;;15.13;;
51654;SDS011;37732;53.106;7.030;2023-03-01T13:49:09;18.40;;;15.90;;
51654;SDS011;37732;53.106;7.030;2023-03-01T13:51:39;18.08;;;16.05;;
51654;SDS011;37732;53.106;7.030;2023-03-01T13:54:05;18.25;;;15.80;;
51654;SDS011;37732;53.106;7.030;2023-03-01T13:56:36;18.38;;;16.05;;
51654;SDS011;37732;53.106;7.030;2023-03-01T13:59:04;18.52;;;15.75;;
51654;SDS011;37732;53.106;7.030;2023-03-01T14:01:37;18.85;;;15.50;;
51654;SDS011;37732;53.106;7.030;2023-03-01T14:04:14;18.88;;;16.88;;
51654;SDS011;37732;53.106;7.030;2023-03-01T14:06:50;16.88;;;14.80;;
51654;SDS011;37732;53.106;7.030;2023-03-01T14:12:01;19.05;;;16.42;;
51654;SDS011;37732;53.106;7.030;2023-03-01T14:20:28;19.30;;;16.02;;
51654;SDS011;37732;53.106;7.030;2023-03-01T14:22:57;19.38;;;17.25;;
51654;SDS011;37732;53.106;7.030;2023-03-01T14:25:28;18.30;;;16.35;;
51654;SDS011;37732;53.106;7.030;2023-03-01T14:30:38;18.98;;;16.05;;
51654;SDS011;37732;53.106;7.030;2023-03-01T14:35:57;20.50;;;17.17;;
51654;SDS011;37732;53.106;7.030;2023-03-01T14:38:28;19.23;;;15.57;;
51654;SDS011;37732;53.106;7.030;2023-03-01T14:41:17;20.80;;;17.38;;
51654;SDS011;37732;53.106;7.030;2023-03-01T14:43:45;19.70;;;16.88;;
51654;SDS011;37732;53.106;7.030;2023-03-01T14:46:21;19.13;;;16.35;;
51654;SDS011;37732;53.106;7.030;2023-03-01T14:48:49;22.10;;;15.43;;
51654;SDS011;37732;53.106;7.030;2023-03-01T14:51:16;17.67;;;15.63;;
51654;SDS011;37732;53.106;7.030;2023-03-01T14:53:42;17.92;;;15.70;;
51654;SDS011;37732;53.106;7.030;2023-03-01T14:56:14;19.20;;;16.67;;
51654;SDS011;37732;53.106;7.030;2023-03-01T14:58:42;18.13;;;16.00;;
51654;SDS011;37732;53.106;7.030;2023-03-01T15:01:13;19.30;;;16.50;;
51654;SDS011;37732;53.106;7.030;2023-03-01T15:03:41;17.48;;;15.18;;
51654;SDS011;37732;53.106;7.030;2023-03-01T15:06:09;17.60;;;15.45;;
51654;SDS011;37732;53.106;7.030;2023-03-01T15:08:37;17.27;;;15.32;;
51654;SDS011;37732;53.106;7.030;2023-03-01T15:13:49;17.73;;;15.77;;
51654;SDS011;37732;53.106;7.030;2023-03-01T15:16:19;19.42;;;15.95;;
51654;SDS011;37732;53.106;7.030;2023-03-01T15:18:47;20.20;;;16.40;;
51654;SDS011;37732;53.106;7.030;2023-03-01T15:21:20;19.40;;;16.60;;
51654;SDS011;37732;53.106;7.030;2023-03-01T15:23:49;19.13;;;16.95;;
51654;SDS011;37732;53.106;7.030;2023-03-01T15:28:50;19.60;;;16.08;;
51654;SDS011;37732;53.106;7.030;2023-03-01T15:31:25;20.05;;;17.35;;
51654;SDS011;37732;53.106;7.030;2023-03-01T15:34:06;19.38;;;16.58;;
51654;SDS011;37732;53.106;7.030;2023-03-01T15:36:49;20.17;;;16.88;;
51654;SDS011;37732;53.106;7.030;2023-03-01T15:42:07;18.13;;;16.13;;
51654;SDS011;37732;53.106;7.030;2023-03-01T15:44:35;19.45;;;16.30;;
51654;SDS011;37732;53.106;7.030;2023-03-01T15:47:08;19.42;;;16.73;;
51654;SDS011;37732;53.106;7.030;2023-03-01T15:49:54;19.90;;;16.05;;
51654;SDS011;37732;53.106;7.030;2023-03-01T15:52:23;21.40;;;17.25;;
51654;SDS011;37732;53.106;7.030;2023-03-01T15:54:55;18.38;;;15.65;;
51654;SDS011;37732;53.106;7.030;2023-03-01T15:57:28;20.30;;;16.83;;
51654;SDS011;37732;53.106;7.030;2023-03-01T15:59:54;18.48;;;15.93;;
51654;SDS011;37732;53.106;7.030;2023-03-01T16:02:20;17.40;;;15.20;;
51654;SDS011;37732;53.106;7.030;2023-03-01T16:04:47;20.58;;;16.60;;
51654;SDS011;37732;53.106;7.030;2023-03-01T16:07:15;19.83;;;16.52;;
51654;SDS011;37732;53.106;7.030;2023-03-01T16:09:41;18.48;;;16.42;;
51654;SDS011;37732;53.106;7.030;2023-03-01T16:12:18;17.85;;;15.95;;
51654;SDS011;37732;53.106;7.030;2023-03-01T16:14:45;19.25;;;17.17;;
51654;SDS011;37732;53.106;7.030;2023-03-01T16:17:11;19.73;;;15.48;;
51654;SDS011;37732;53.106;7.030;2023-03-01T16:19:37;21.38;;;17.33;;
51654;SDS011;37732;53.106;7.030;2023-03-01T16:22:03;19.15;;;17.02;;
51654;SDS011;37732;53.106;7.030;2023-03-01T16:24:29;19.48;;;17.25;;
51654;SDS011;37732;53.106;7.030;2023-03-01T16:26:55;18.77;;;16.88;;
51654;SDS011;37732;53.106;7.030;2023-03-01T16:29:21;18.58;;;16.60;;
51654;SDS011;37732;53.106;7.030;2023-03-01T16:31:46;19.30;;;17.05;;
51654;SDS011;37732;53.106;7.030;2023-03-01T16:34:12;18.40;;;16.42;;
51654;SDS011;37732;53.106;7.030;2023-03-01T16:36:38;17.92;;;16.02;;
51654;SDS011;37732;53.106;7.030;2023-03-01T16:39:04;19.45;;;17.40;;
51654;SDS011;37732;53.106;7.030;2023-03-01T16:41:29;20.15;;;18.02;;
51654;SDS011;37732;53.106;7.030;2023-03-01T16:43:55;19.92;;;17.83;;
51654;SDS011;37732;53.106;7.030;2023-03-01T16:46:25;20.02;;;17.30;;
51654;SDS011;37732;53.106;7.030;2023-03-01T16:48:53;20.90;;;18.67;;
51654;SDS011;37732;53.106;7.030;2023-03-01T16:51:19;20.63;;;18.08;;
51654;SDS011;37732;53.106;7.030;2023-03-01T16:53:45;22.30;;;18.15;;
51654;SDS011;37732;53.106;7.030;2023-03-01T16:56:12;22.10;;;18.42;;
51654;SDS011;37732;53.106;7.030;2023-03-01T16:58:39;23.42;;;19.08;;
51654;SDS011;37732;53.106;7.030;2023-03-01T17:01:10;19.20;;;17.20;;
51654;SDS011;37732;53.106;7.030;2023-03-01T17:03:38;20.23;;;18.03;;
51654;SDS011;37732;53.106;7.030;2023-03-01T17:06:05;19.75;;;17.65;;
51654;SDS011;37732;53.106;7.030;2023-03-01T17:08:33;22.20;;;19.88;;
51654;SDS011;37732;53.106;7.030;2023-03-01T17:11:09;21.05;;;18.63;;
51654;SDS011;37732;53.106;7.030;2023-03-01T17:13:36;21.98;;;19.58;;
51654;SDS011;37732;53.106;7.030;2023-03-01T17:16:03;21.98;;;19.58;;
51654;SDS011;37732;53.106;7.030;2023-03-01T17:18:35;22.45;;;19.48;;